createdAt,value
2022-12-13T00:00:14.959Z,26.27
2022-12-13T00:05:16.805Z,23.67
2022-12-13T00:10:18.790Z,28.50
2022-12-13T00:15:21.495Z,25.57
2022-12-13T00:20:23.078Z,24.13
2022-12-13T00:25:24.883Z,25.00
2022-12-13T00:30:27.527Z,24.40
2022-12-13T00:35:29.112Z,24.33
2022-12-13T00:40:30.699Z,30.27
2022-12-13T00:45:33.068Z,25.33
2022-12-13T00:50:35.007Z,25.80
2022-12-13T00:55:40.879Z,25.03
2022-12-13T01:00:42.512Z,22.90
2022-12-13T01:06:13.798Z,27.80
2022-12-13T01:11:07.554Z,20.97
2022-12-13T01:16:10.789Z,27.50
2022-12-13T01:21:15.122Z,20.67
2022-12-13T01:26:19.098Z,20.97
2022-12-13T01:31:21.569Z,24.33
2022-12-13T01:36:27.772Z,23.87
2022-12-13T01:41:31.485Z,25.70
2022-12-13T01:46:35.085Z,23.67
2022-12-13T01:51:43.441Z,27.93
2022-12-13T01:56:48.783Z,25.03
2022-12-13T02:01:50.804Z,23.57
2022-12-13T02:06:52.798Z,26.00
2022-12-13T02:11:54.409Z,28.07
2022-12-13T02:17:03.812Z,24.80
2022-12-13T02:22:17.649Z,24.50
2022-12-13T02:27:48.331Z,19.30
2022-12-13T02:33:21.955Z,30.43
2022-12-13T02:38:28.311Z,28.43
2022-12-13T02:43:34.796Z,24.20
2022-12-13T02:48:39.500Z,24.53
2022-12-13T02:53:42.452Z,29.23
2022-12-13T02:58:48.253Z,25.10
2022-12-13T03:04:13.463Z,27.83
2022-12-13T03:09:40.609Z,32.53
2022-12-13T03:14:49.704Z,28.83
2022-12-13T03:19:54.268Z,37.33
2022-12-13T03:24:56.052Z,33.03
2022-12-13T03:29:58.280Z,32.67
2022-12-13T03:35:00.983Z,26.53
2022-12-13T03:40:02.984Z,27.30
2022-12-13T03:45:04.991Z,27.83
2022-12-13T03:50:07.408Z,27.10
2022-12-13T03:55:28.057Z,25.33
2022-12-13T04:00:29.964Z,33.07
2022-12-13T04:05:31.583Z,26.70
2022-12-13T04:10:33.353Z,25.93
2022-12-13T04:15:34.971Z,24.43
2022-12-13T04:20:36.518Z,24.10
2022-12-13T04:25:39.229Z,25.03
2022-12-13T04:30:41.023Z,21.40
2022-12-13T04:35:42.570Z,20.90
2022-12-13T04:40:45.394Z,21.90
2022-12-13T04:45:46.964Z,26.33
2022-12-13T04:50:48.632Z,25.30
2022-12-13T04:55:50.208Z,21.43
2022-12-13T05:00:51.815Z,23.17
2022-12-13T05:05:53.503Z,23.57
2022-12-13T05:10:55.023Z,19.57
2022-12-13T05:16:01.546Z,19.97
2022-12-13T05:21:04.910Z,18.87
2022-12-13T05:26:06.774Z,22.97
2022-12-13T05:31:22.919Z,22.70
2022-12-13T05:36:25.673Z,18.93
2022-12-13T05:41:29.371Z,20.13
2022-12-13T05:46:31.615Z,22.77
2022-12-13T05:51:35.057Z,20.20
2022-12-13T05:56:36.712Z,20.53
2022-12-13T06:01:43.806Z,19.63
2022-12-13T06:06:45.765Z,18.73
2022-12-13T06:11:48.320Z,26.45
2022-12-13T06:16:53.576Z,22.37
2022-12-13T06:21:55.828Z,22.30
2022-12-13T06:26:58.696Z,19.07
2022-12-13T06:32:03.587Z,22.80
2022-12-13T06:37:07.851Z,16.10
2022-12-13T06:42:21.434Z,18.00
2022-12-13T06:47:31.295Z,21.23
2022-12-13T06:52:34.254Z,19.30
2022-12-13T06:57:37.194Z,22.13
2022-12-13T07:02:39.445Z,18.17
2022-12-13T07:07:41.090Z,20.57
2022-12-13T07:12:42.777Z,19.53
2022-12-13T07:17:44.505Z,19.80
2022-12-13T07:22:49.275Z,19.60
2022-12-13T07:28:02.146Z,17.13
2022-12-13T07:33:05.331Z,15.73
2022-12-13T07:38:08.384Z,18.43
2022-12-13T07:43:10.233Z,18.37
2022-12-13T07:48:12.390Z,18.70
2022-12-13T07:53:14.291Z,21.43
2022-12-13T07:58:15.903Z,18.50
2022-12-13T08:03:25.250Z,18.90
2022-12-13T08:08:30.938Z,17.03
2022-12-13T08:13:33.748Z,19.20
2022-12-13T08:18:35.358Z,19.50
2022-12-13T08:23:38.020Z,20.07
2022-12-13T08:28:39.764Z,15.23
2022-12-13T08:33:43.622Z,15.80
2022-12-13T08:38:45.815Z,17.60
2022-12-13T08:43:47.736Z,19.90
2022-12-13T08:48:49.365Z,17.30
2022-12-13T08:53:51.592Z,20.93
2022-12-13T08:58:53.165Z,15.93
2022-12-13T09:03:55.989Z,18.50
2022-12-13T09:08:59.307Z,20.23
2022-12-13T09:14:05.418Z,21.53
2022-12-13T09:19:24.645Z,17.67
2022-12-13T09:24:26.486Z,19.37
2022-12-13T09:29:28.183Z,18.03
2022-12-13T09:34:30.025Z,20.33
2022-12-13T09:39:31.690Z,19.10
2022-12-13T09:44:44.149Z,20.40
2022-12-13T09:49:52.831Z,19.63
2022-12-13T09:54:58.975Z,17.83
2022-12-13T10:00:10.892Z,20.37
2022-12-13T10:05:22.437Z,19.60
2022-12-13T10:10:26.516Z,20.07
2022-12-13T10:15:28.737Z,16.17
2022-12-13T10:20:30.523Z,17.93
2022-12-13T10:25:51.408Z,14.90
2022-12-13T10:30:53.616Z,14.97
2022-12-13T10:36:15.968Z,16.47
2022-12-13T10:41:30.387Z,16.80
2022-12-13T10:46:38.515Z,16.83
2022-12-13T10:51:40.603Z,16.57
2022-12-13T10:56:50.499Z,16.33
2022-12-13T11:01:52.356Z,17.63
2022-12-13T11:06:54.136Z,16.93
2022-12-13T11:11:58.978Z,15.80
2022-12-13T11:17:10.692Z,15.97
2022-12-13T11:22:27.478Z,13.03
2022-12-13T11:27:53.932Z,13.23
2022-12-13T11:33:33.239Z,13.23
2022-12-13T11:38:58.081Z,19.57
2022-12-13T11:44:11.798Z,13.67
2022-12-13T11:49:18.140Z,15.17
2022-12-13T11:54:28.424Z,14.77
2022-12-13T12:00:04.811Z,11.67
2022-12-13T12:05:30.820Z,11.67
2022-12-13T12:10:35.203Z,12.07
2022-12-13T12:15:43.258Z,11.73
2022-12-13T12:20:51.302Z,11.97
2022-12-13T12:26:05.074Z,9.73
2022-12-13T12:31:35.708Z,11.27
2022-12-13T12:36:52.530Z,11.97
2022-12-13T12:42:44.593Z,10.07
2022-12-13T12:53:59.710Z,10.63
2022-12-13T12:59:10.704Z,11.13
2022-12-13T13:04:14.297Z,9.93
2022-12-13T13:09:24.996Z,10.73
2022-12-13T13:14:33.051Z,11.03
2022-12-13T13:19:35.602Z,12.77
2022-12-13T13:24:37.241Z,11.07
2022-12-13T13:29:43.873Z,10.80
2022-12-13T13:34:47.678Z,12.10
2022-12-13T13:40:02.372Z,8.83
2022-12-13T13:45:24.546Z,11.77
2022-12-13T13:50:56.069Z,11.00
2022-12-13T13:56:19.577Z,11.37
2022-12-13T14:02:01.503Z,11.07
2022-12-13T14:07:44.913Z,10.83
2022-12-13T14:13:23.573Z,13.33
2022-12-13T14:18:28.053Z,12.20
2022-12-13T14:23:48.302Z,12.10
2022-12-13T14:28:54.044Z,9.43
2022-12-13T14:33:56.883Z,10.30
2022-12-13T14:39:24.727Z,12.10
2022-12-13T14:44:35.159Z,9.47
2022-12-13T14:49:41.823Z,11.70
2022-12-13T14:54:58.649Z,9.80
2022-12-13T15:00:21.463Z,10.07
2022-12-13T15:05:29.506Z,10.70
2022-12-13T15:10:38.294Z,11.13
2022-12-13T15:15:39.799Z,11.10
2022-12-13T15:20:41.839Z,9.03
2022-12-13T15:25:52.494Z,11.00
2022-12-13T15:30:56.385Z,12.67
2022-12-13T15:36:19.363Z,9.93
2022-12-13T15:41:25.123Z,8.87
2022-12-13T15:46:28.604Z,12.47
2022-12-13T15:51:30.978Z,15.63
2022-12-13T15:56:35.861Z,14.27
2022-12-13T16:01:37.497Z,11.63
2022-12-13T16:06:39.138Z,12.27
2022-12-13T16:11:53.617Z,10.67
2022-12-13T16:16:56.197Z,9.93
2022-12-13T16:21:58.104Z,12.57
2022-12-13T16:26:59.782Z,12.10
2022-12-13T16:32:08.574Z,12.00
2022-12-13T16:37:26.236Z,13.20
2022-12-13T16:42:28.955Z,13.40
2022-12-13T16:47:41.726Z,15.17
2022-12-13T16:52:48.745Z,11.20
2022-12-13T16:58:04.011Z,13.20
2022-12-13T17:03:06.642Z,11.03
2022-12-13T17:08:11.828Z,13.37
2022-12-13T17:13:13.438Z,12.80
2022-12-13T17:18:15.871Z,12.37
2022-12-13T17:23:18.698Z,15.73
2022-12-13T17:28:20.194Z,11.17
2022-12-13T17:33:22.055Z,14.93
2022-12-13T17:38:24.207Z,11.53
2022-12-13T17:43:33.759Z,10.83
2022-12-13T17:48:40.725Z,10.90
2022-12-13T17:53:43.716Z,12.83
2022-12-13T17:58:45.864Z,14.00
2022-12-13T18:03:50.532Z,14.07
2022-12-13T18:08:52.243Z,10.87
2022-12-13T18:13:54.579Z,10.67
2022-12-13T18:18:57.529Z,12.37
2022-12-13T18:23:59.727Z,11.13
2022-12-13T18:29:02.067Z,9.83
2022-12-13T18:34:04.220Z,13.83
2022-12-13T18:39:05.760Z,10.07
2022-12-13T18:44:10.474Z,15.47
2022-12-13T18:49:13.075Z,13.20
2022-12-13T18:54:14.658Z,11.83
2022-12-13T18:59:16.295Z,13.03
2022-12-13T19:04:17.820Z,11.97
2022-12-13T19:09:19.401Z,13.00
2022-12-13T19:14:26.756Z,12.10
2022-12-13T19:19:29.283Z,12.73
2022-12-13T19:24:30.911Z,11.07
2022-12-13T19:29:32.545Z,14.67
2022-12-13T19:34:34.126Z,12.00
2022-12-13T19:39:35.671Z,9.43
2022-12-13T19:44:37.240Z,12.03
2022-12-13T19:49:39.113Z,9.03
2022-12-13T19:54:40.791Z,10.33
2022-12-13T19:59:47.679Z,9.63
2022-12-13T20:04:50.072Z,12.30
2022-12-13T20:09:53.113Z,10.47
2022-12-13T20:14:54.670Z,13.00
2022-12-13T20:19:56.851Z,12.27
2022-12-13T20:24:58.710Z,11.43
2022-12-13T20:30:00.404Z,10.60
2022-12-13T20:35:02.106Z,9.97
2022-12-13T20:40:03.968Z,9.90
2022-12-13T20:45:06.019Z,9.90
2022-12-13T20:50:08.061Z,9.77
2022-12-13T20:55:09.808Z,10.23
2022-12-13T21:00:12.270Z,10.03
2022-12-13T21:05:20.433Z,9.83
2022-12-13T21:10:23.277Z,7.67
2022-12-13T21:15:25.512Z,12.27
2022-12-13T21:20:27.123Z,10.23
2022-12-13T21:25:28.822Z,9.70
2022-12-13T21:30:30.503Z,11.80
2022-12-13T21:35:32.059Z,8.23
2022-12-13T21:40:33.548Z,11.50
2022-12-13T21:45:35.199Z,9.00
2022-12-13T21:50:36.856Z,8.20
2022-12-13T21:55:42.973Z,9.07
2022-12-13T22:00:46.046Z,9.17
2022-12-13T22:05:47.699Z,7.83
2022-12-13T22:11:07.903Z,10.87
2022-12-13T22:16:10.684Z,11.23
2022-12-13T22:21:12.277Z,11.07
2022-12-13T22:26:14.081Z,9.03
2022-12-13T22:31:16.293Z,9.43
2022-12-13T22:36:17.909Z,8.67
2022-12-13T22:41:19.511Z,7.77
2022-12-13T22:46:21.271Z,12.37
2022-12-13T22:51:22.823Z,8.13
2022-12-13T22:56:24.517Z,8.33
2022-12-13T23:01:29.180Z,9.33
2022-12-13T23:06:35.807Z,8.50
2022-12-13T23:11:55.977Z,7.77
2022-12-13T23:16:57.818Z,7.20
2022-12-13T23:21:59.500Z,9.27
2022-12-13T23:27:01.076Z,9.23
2022-12-13T23:32:02.918Z,10.00
2022-12-13T23:37:04.765Z,8.20
2022-12-13T23:42:06.276Z,10.63
2022-12-13T23:47:08.055Z,11.47
2022-12-13T23:52:09.675Z,8.07
2022-12-13T23:57:11.173Z,10.27
